sensor_id;sensor_type;location;lat;lon;timestamp;pressure;altitude;pressure_sealevel;temperature;humidity
45323;BME280;31382;50.200;8.674;2022-12-08T00:02:37;99889.75;;;6.01;68.73
45323;BME280;31382;50.200;8.674;2022-12-08T00:07:39;99887.72;;;5.95;68.27
45323;BME280;31382;50.200;8.674;2022-12-08T00:12:59;99889.72;;;5.75;69.47
45323;BME280;31382;50.200;8.674;2022-12-08T00:18:01;99882.81;;;5.64;69.30
45323;BME280;31382;50.200;8.674;2022-12-08T00:23:02;99890.81;;;5.64;69.66
45323;BME280;31382;50.200;8.674;2022-12-08T00:28:04;99871.47;;;5.62;69.66
45323;BME280;31382;50.200;8.674;2022-12-08T00:33:05;99876.34;;;5.67;69.57
45323;BME280;31382;50.200;8.674;2022-12-08T00:38:07;99868.69;;;5.72;69.73
45323;BME280;31382;50.200;8.674;2022-12-08T00:43:08;99859.91;;;5.80;69.63
45323;BME280;31382;50.200;8.674;2022-12-08T00:48:10;99866.25;;;5.79;69.84
45323;BME280;31382;50.200;8.674;2022-12-08T00:53:11;99869.06;;;5.77;69.75
45323;BME280;31382;50.200;8.674;2022-12-08T00:58:12;99859.19;;;5.95;69.42
45323;BME280;31382;50.200;8.674;2022-12-08T01:03:14;99855.06;;;6.01;69.48
45323;BME280;31382;50.200;8.674;2022-12-08T01:08:15;99854.16;;;5.92;69.72
45323;BME280;31382;50.200;8.674;2022-12-08T01:13:17;99847.44;;;5.88;69.79
45323;BME280;31382;50.200;8.674;2022-12-08T01:18:18;99844.78;;;5.88;69.87
45323;BME280;31382;50.200;8.674;2022-12-08T01:23:19;99848.31;;;5.89;69.76
45323;BME280;31382;50.200;8.674;2022-12-08T01:28:21;99833.63;;;5.85;70.08
45323;BME280;31382;50.200;8.674;2022-12-08T01:33:22;99846.31;;;5.91;70.01
45323;BME280;31382;50.200;8.674;2022-12-08T01:38:24;99845.72;;;5.97;70.19
45323;BME280;31382;50.200;8.674;2022-12-08T01:43:46;99839.88;;;6.02;69.97
45323;BME280;31382;50.200;8.674;2022-12-08T01:48:54;99827.91;;;6.06;69.77
45323;BME280;31382;50.200;8.674;2022-12-08T01:53:56;99835.22;;;6.04;70.49
45323;BME280;31382;50.200;8.674;2022-12-08T01:58:58;99824.56;;;6.04;69.75
45323;BME280;31382;50.200;8.674;2022-12-08T02:04:01;99826.75;;;6.08;69.47
45323;BME280;31382;50.200;8.674;2022-12-08T02:09:04;99825.44;;;6.12;69.72
45323;BME280;31382;50.200;8.674;2022-12-08T02:14:07;99819.47;;;6.19;69.14
45323;BME280;31382;50.200;8.674;2022-12-08T02:19:48;99821.97;;;6.20;69.62
45323;BME280;31382;50.200;8.674;2022-12-08T02:25:18;99814.81;;;6.29;69.93
45323;BME280;31382;50.200;8.674;2022-12-08T02:35:38;99801.19;;;6.40;69.21
45323;BME280;31382;50.200;8.674;2022-12-08T02:41:15;99795.34;;;6.45;69.34
45323;BME280;31382;50.200;8.674;2022-12-08T02:46:27;99787.50;;;6.43;69.60
45323;BME280;31382;50.200;8.674;2022-12-08T02:51:30;99792.16;;;6.33;69.34
45323;BME280;31382;50.200;8.674;2022-12-08T02:56:37;99787.75;;;6.15;69.52
45323;BME280;31382;50.200;8.674;2022-12-08T03:02:08;99777.72;;;6.09;69.86
45323;BME280;31382;50.200;8.674;2022-12-08T03:07:29;99770.00;;;5.98;70.47
45323;BME280;31382;50.200;8.674;2022-12-08T03:12:47;99774.66;;;5.96;69.88
45323;BME280;31382;50.200;8.674;2022-12-08T03:17:52;99767.13;;;5.91;70.55
45323;BME280;31382;50.200;8.674;2022-12-08T03:22:57;99762.34;;;5.95;70.39
45323;BME280;31382;50.200;8.674;2022-12-08T03:28:00;99764.94;;;5.87;70.69
45323;BME280;31382;50.200;8.674;2022-12-08T03:33:06;99760.44;;;5.87;70.84
45323;BME280;31382;50.200;8.674;2022-12-08T03:38:13;99749.78;;;5.87;70.88
45323;BME280;31382;50.200;8.674;2022-12-08T03:43:15;99752.19;;;5.99;70.87
45323;BME280;31382;50.200;8.674;2022-12-08T03:48:16;99748.72;;;6.06;70.48
45323;BME280;31382;50.200;8.674;2022-12-08T03:53:17;99746.06;;;6.06;70.11
45323;BME280;31382;50.200;8.674;2022-12-08T03:58:19;99729.19;;;6.06;70.31
45323;BME280;31382;50.200;8.674;2022-12-08T04:03:20;99730.19;;;6.05;70.36
45323;BME280;31382;50.200;8.674;2022-12-08T04:08:22;99735.38;;;6.06;70.54
45323;BME280;31382;50.200;8.674;2022-12-08T04:13:23;99718.69;;;6.04;71.09
45323;BME280;31382;50.200;8.674;2022-12-08T04:18:25;99722.53;;;6.10;70.89
45323;BME280;31382;50.200;8.674;2022-12-08T04:23:26;99715.84;;;6.06;70.33
45323;BME280;31382;50.200;8.674;2022-12-08T04:28:27;99714.72;;;6.08;71.33
45323;BME280;31382;50.200;8.674;2022-12-08T04:33:32;99720.03;;;6.08;70.89
45323;BME280;31382;50.200;8.674;2022-12-08T04:38:35;99718.69;;;6.04;70.70
45323;BME280;31382;50.200;8.674;2022-12-08T04:43:37;99706.03;;;6.06;71.03
45323;BME280;31382;50.200;8.674;2022-12-08T04:48:39;99715.00;;;6.05;71.34
45323;BME280;31382;50.200;8.674;2022-12-08T04:53:41;99701.31;;;6.00;71.16
45323;BME280;31382;50.200;8.674;2022-12-08T04:58:47;99701.00;;;6.03;71.57
45323;BME280;31382;50.200;8.674;2022-12-08T05:03:48;99699.66;;;5.99;70.77
45323;BME280;31382;50.200;8.674;2022-12-08T05:08:49;99694.31;;;5.99;71.66
45323;BME280;31382;50.200;8.674;2022-12-08T05:13:51;99696.19;;;6.07;71.28
45323;BME280;31382;50.200;8.674;2022-12-08T05:18:52;99694.84;;;6.11;71.50
45323;BME280;31382;50.200;8.674;2022-12-08T05:23:54;99691.03;;;6.13;71.30
45323;BME280;31382;50.200;8.674;2022-12-08T05:28:55;99682.03;;;6.14;71.42
45323;BME280;31382;50.200;8.674;2022-12-08T05:33:57;99683.03;;;6.22;70.54
45323;BME280;31382;50.200;8.674;2022-12-08T05:39:03;99686.34;;;6.24;70.80
45323;BME280;31382;50.200;8.674;2022-12-08T05:44:05;99678.41;;;6.32;71.52
45323;BME280;31382;50.200;8.674;2022-12-08T05:49:06;99684.56;;;6.32;70.68
45323;BME280;31382;50.200;8.674;2022-12-08T05:54:08;99676.72;;;6.31;71.29
45323;BME280;31382;50.200;8.674;2022-12-08T05:59:09;99675.72;;;6.40;70.43
45323;BME280;31382;50.200;8.674;2022-12-08T06:04:11;99668.69;;;6.39;70.85
45323;BME280;31382;50.200;8.674;2022-12-08T06:09:12;99663.19;;;6.32;70.93
45323;BME280;31382;50.200;8.674;2022-12-08T06:14:13;99664.53;;;6.37;71.42
45323;BME280;31382;50.200;8.674;2022-12-08T06:19:15;99668.69;;;6.39;71.29
45323;BME280;31382;50.200;8.674;2022-12-08T06:24:16;99659.88;;;6.47;71.53
45323;BME280;31382;50.200;8.674;2022-12-08T06:29:18;99668.03;;;6.45;71.54
45323;BME280;31382;50.200;8.674;2022-12-08T06:34:19;99667.38;;;6.43;71.03
45323;BME280;31382;50.200;8.674;2022-12-08T06:39:20;99667.38;;;6.43;70.97
45323;BME280;31382;50.200;8.674;2022-12-08T06:44:22;99660.84;;;6.38;71.37
45323;BME280;31382;50.200;8.674;2022-12-08T06:49:23;99674.72;;;6.33;71.36
45323;BME280;31382;50.200;8.674;2022-12-08T06:54:25;99667.72;;;6.32;71.04
45323;BME280;31382;50.200;8.674;2022-12-08T06:59:26;99660.19;;;6.35;70.82
45323;BME280;31382;50.200;8.674;2022-12-08T07:04:28;99661.03;;;6.44;71.38
45323;BME280;31382;50.200;8.674;2022-12-08T07:09:29;99663.56;;;6.46;71.21
45323;BME280;31382;50.200;8.674;2022-12-08T07:14:30;99664.53;;;6.53;70.27
45323;BME280;31382;50.200;8.674;2022-12-08T07:19:32;99664.84;;;6.42;71.49
45323;BME280;31382;50.200;8.674;2022-12-08T07:24:33;99675.22;;;6.37;70.84
45323;BME280;31382;50.200;8.674;2022-12-08T07:29:35;99665.72;;;6.34;71.69
45323;BME280;31382;50.200;8.674;2022-12-08T07:34:36;99655.00;;;6.26;71.01
45323;BME280;31382;50.200;8.674;2022-12-08T07:39:37;99660.34;;;6.18;71.11
45323;BME280;31382;50.200;8.674;2022-12-08T07:44:39;99664.69;;;6.19;71.73
45323;BME280;31382;50.200;8.674;2022-12-08T07:49:40;99661.00;;;6.11;71.45
45323;BME280;31382;50.200;8.674;2022-12-08T07:54:41;99657.50;;;6.03;72.24
45323;BME280;31382;50.200;8.674;2022-12-08T07:59:43;99661.66;;;6.05;71.99
45323;BME280;31382;50.200;8.674;2022-12-08T08:04:48;99668.28;;;5.93;71.75
45323;BME280;31382;50.200;8.674;2022-12-08T08:09:50;99663.91;;;5.84;72.06
45323;BME280;31382;50.200;8.674;2022-12-08T08:14:51;99669.91;;;5.86;71.81
45323;BME280;31382;50.200;8.674;2022-12-08T08:19:53;99668.28;;;5.93;72.38
45323;BME280;31382;50.200;8.674;2022-12-08T08:24:54;99676.34;;;6.09;71.86
45323;BME280;31382;50.200;8.674;2022-12-08T08:29:56;99671.34;;;6.06;72.06
45323;BME280;31382;50.200;8.674;2022-12-08T08:34:57;99668.69;;;6.14;72.31
45323;BME280;31382;50.200;8.674;2022-12-08T08:39:58;99665.34;;;6.21;72.11
45323;BME280;31382;50.200;8.674;2022-12-08T08:45:00;99679.03;;;6.26;71.90
45323;BME280;31382;50.200;8.674;2022-12-08T08:50:02;99677.88;;;6.28;71.66
45323;BME280;31382;50.200;8.674;2022-12-08T08:55:05;99666.34;;;6.28;71.70
45323;BME280;31382;50.200;8.674;2022-12-08T09:00:07;99666.34;;;6.28;72.19
45323;BME280;31382;50.200;8.674;2022-12-08T09:05:10;99665.00;;;6.24;72.62
45323;BME280;31382;50.200;8.674;2022-12-08T09:10:11;99657.00;;;6.15;72.46
45323;BME280;31382;50.200;8.674;2022-12-08T09:15:13;99665.50;;;6.19;72.03
45323;BME280;31382;50.200;8.674;2022-12-08T09:20:14;99667.00;;;6.22;72.27
45323;BME280;31382;50.200;8.674;2022-12-08T09:25:16;99667.88;;;6.22;72.27
45323;BME280;31382;50.200;8.674;2022-12-08T09:30:17;99670.69;;;6.21;72.38
45323;BME280;31382;50.200;8.674;2022-12-08T09:35:18;99672.19;;;6.23;72.56
45323;BME280;31382;50.200;8.674;2022-12-08T09:40:21;99665.69;;;6.18;72.24
45323;BME280;31382;50.200;8.674;2022-12-08T09:45:25;99656.03;;;6.25;72.96
45323;BME280;31382;50.200;8.674;2022-12-08T09:50:54;99636.50;;;6.24;72.78
45323;BME280;31382;50.200;8.674;2022-12-08T09:56:02;99635.66;;;6.24;72.85
45323;BME280;31382;50.200;8.674;2022-12-08T10:01:03;99629.19;;;6.26;73.14
45323;BME280;31382;50.200;8.674;2022-12-08T10:06:28;99630.34;;;6.32;72.63
45323;BME280;31382;50.200;8.674;2022-12-08T10:11:53;99618.66;;;6.41;71.96
45323;BME280;31382;50.200;8.674;2022-12-08T10:17:01;99620.47;;;6.57;72.47
45323;BME280;31382;50.200;8.674;2022-12-08T10:22:14;99617.50;;;6.52;72.93
45323;BME280;31382;50.200;8.674;2022-12-08T10:27:19;99614.28;;;6.65;71.91
45323;BME280;31382;50.200;8.674;2022-12-08T10:32:23;99605.59;;;6.79;71.39
45323;BME280;31382;50.200;8.674;2022-12-08T10:37:28;99602.94;;;6.71;71.87
45323;BME280;31382;50.200;8.674;2022-12-08T10:42:36;99593.91;;;6.80;71.67
45323;BME280;31382;50.200;8.674;2022-12-08T10:47:40;99596.03;;;7.01;70.69
45323;BME280;31382;50.200;8.674;2022-12-08T10:52:56;99585.97;;;7.11;70.18
45323;BME280;31382;50.200;8.674;2022-12-08T10:57:58;99577.63;;;7.06;71.11
45323;BME280;31382;50.200;8.674;2022-12-08T11:03:02;99583.34;;;7.03;70.86
45323;BME280;31382;50.200;8.674;2022-12-08T11:08:04;99576.75;;;7.22;70.73
45323;BME280;31382;50.200;8.674;2022-12-08T11:13:17;99579.63;;;7.12;70.29
45323;BME280;31382;50.200;8.674;2022-12-08T11:18:28;99561.72;;;7.21;70.33
45323;BME280;31382;50.200;8.674;2022-12-08T11:23:29;99569.38;;;7.24;70.01
45323;BME280;31382;50.200;8.674;2022-12-08T11:28:31;99567.19;;;7.28;70.51
45323;BME280;31382;50.200;8.674;2022-12-08T11:33:33;99556.63;;;7.34;69.79
45323;BME280;31382;50.200;8.674;2022-12-08T11:38:40;99544.59;;;7.39;69.48
45323;BME280;31382;50.200;8.674;2022-12-08T11:43:55;99546.84;;;7.50;69.64
45323;BME280;31382;50.200;8.674;2022-12-08T11:49:03;99547.03;;;7.48;68.80
45323;BME280;31382;50.200;8.674;2022-12-08T11:59:30;99545.31;;;7.55;69.19
45323;BME280;31382;50.200;8.674;2022-12-08T12:04:40;99541.13;;;7.61;68.91
45323;BME280;31382;50.200;8.674;2022-12-08T12:20:52;99528.06;;;7.66;67.96
45323;BME280;31382;50.200;8.674;2022-12-08T12:25:59;99523.53;;;7.67;68.36
45323;BME280;31382;50.200;8.674;2022-12-08T12:31:05;99527.19;;;7.66;68.19
45323;BME280;31382;50.200;8.674;2022-12-08T12:36:09;99515.50;;;7.67;67.78
45323;BME280;31382;50.200;8.674;2022-12-08T12:41:12;99512.66;;;7.68;68.04
45323;BME280;31382;50.200;8.674;2022-12-08T12:51:43;99507.50;;;7.90;67.71
45323;BME280;31382;50.200;8.674;2022-12-08T12:56:47;99505.72;;;7.82;68.14
45323;BME280;31382;50.200;8.674;2022-12-08T13:01:53;99504.91;;;7.73;67.28
45323;BME280;31382;50.200;8.674;2022-12-08T13:06:55;99498.81;;;7.88;67.57
45323;BME280;31382;50.200;8.674;2022-12-08T13:12:00;99500.53;;;7.81;67.60
45323;BME280;31382;50.200;8.674;2022-12-08T13:17:10;99502.56;;;7.79;67.46
45323;BME280;31382;50.200;8.674;2022-12-08T13:27:53;99490.94;;;7.40;68.20
45323;BME280;31382;50.200;8.674;2022-12-08T13:32:56;99495.63;;;7.38;68.27
45323;BME280;31382;50.200;8.674;2022-12-08T13:38:21;99484.03;;;7.46;67.90
45323;BME280;31382;50.200;8.674;2022-12-08T13:43:41;99481.69;;;7.51;68.22
45323;BME280;31382;50.200;8.674;2022-12-08T13:49:05;99475.31;;;7.52;68.00
45323;BME280;31382;50.200;8.674;2022-12-08T13:54:31;99469.25;;;7.58;67.56
45323;BME280;31382;50.200;8.674;2022-12-08T14:00:03;99471.69;;;7.68;67.07
45323;BME280;31382;50.200;8.674;2022-12-08T14:05:06;99478.94;;;7.59;66.95
45323;BME280;31382;50.200;8.674;2022-12-08T14:10:29;99485.41;;;7.42;67.68
45323;BME280;31382;50.200;8.674;2022-12-08T14:15:32;99493.53;;;7.25;66.93
45323;BME280;31382;50.200;8.674;2022-12-08T14:20:38;99482.97;;;7.32;66.30
45323;BME280;31382;50.200;8.674;2022-12-08T14:26:02;99485.97;;;7.37;65.58
45323;BME280;31382;50.200;8.674;2022-12-08T14:31:07;99489.78;;;7.34;66.09
45323;BME280;31382;50.200;8.674;2022-12-08T14:36:09;99489.94;;;7.41;66.01
45323;BME280;31382;50.200;8.674;2022-12-08T14:41:12;99492.13;;;7.38;65.36
45323;BME280;31382;50.200;8.674;2022-12-08T14:46:19;99492.19;;;7.29;65.03
45323;BME280;31382;50.200;8.674;2022-12-08T14:51:28;99494.84;;;7.29;65.16
45323;BME280;31382;50.200;8.674;2022-12-08T14:56:39;99493.53;;;7.25;64.96
45323;BME280;31382;50.200;8.674;2022-12-08T15:01:43;99489.13;;;7.32;65.15
45323;BME280;31382;50.200;8.674;2022-12-08T15:06:58;99493.53;;;7.25;65.13
45323;BME280;31382;50.200;8.674;2022-12-08T15:12:13;99498.41;;;7.22;65.44
45323;BME280;31382;50.200;8.674;2022-12-08T15:22:40;99510.44;;;7.18;64.59
45323;BME280;31382;50.200;8.674;2022-12-08T15:27:42;99513.00;;;7.03;65.06
45323;BME280;31382;50.200;8.674;2022-12-08T15:32:51;99511.81;;;6.74;65.04
45323;BME280;31382;50.200;8.674;2022-12-08T15:37:55;99508.97;;;6.67;65.32
45323;BME280;31382;50.200;8.674;2022-12-08T15:42:56;99502.50;;;6.53;64.85
45323;BME280;31382;50.200;8.674;2022-12-08T15:47:58;99508.22;;;6.42;65.53
45323;BME280;31382;50.200;8.674;2022-12-08T15:53:00;99509.53;;;6.54;65.69
45323;BME280;31382;50.200;8.674;2022-12-08T15:58:01;99509.50;;;6.63;64.84
45323;BME280;31382;50.200;8.674;2022-12-08T16:03:27;99509.19;;;6.49;65.73
45323;BME280;31382;50.200;8.674;2022-12-08T16:08:49;99499.81;;;6.53;66.11
45323;BME280;31382;50.200;8.674;2022-12-08T16:14:11;99496.69;;;6.50;65.40
45323;BME280;31382;50.200;8.674;2022-12-08T16:19:32;99492.47;;;6.55;65.89
45323;BME280;31382;50.200;8.674;2022-12-08T16:24:33;99492.81;;;6.61;65.74
45323;BME280;31382;50.200;8.674;2022-12-08T16:29:35;99504.16;;;6.63;65.73
45323;BME280;31382;50.200;8.674;2022-12-08T16:34:36;99504.34;;;6.53;66.72
45323;BME280;31382;50.200;8.674;2022-12-08T16:39:37;99505.16;;;6.62;66.45
45323;BME280;31382;50.200;8.674;2022-12-08T16:44:46;99506.03;;;6.54;66.89
45323;BME280;31382;50.200;8.674;2022-12-08T16:49:47;99508.72;;;6.46;67.36
45323;BME280;31382;50.200;8.674;2022-12-08T16:54:48;99502.53;;;6.45;67.24
45323;BME280;31382;50.200;8.674;2022-12-08T16:59:50;99494.84;;;6.50;67.53
45323;BME280;31382;50.200;8.674;2022-12-08T17:04:51;99489.66;;;6.49;67.78
45323;BME280;31382;50.200;8.674;2022-12-08T17:09:53;99494.19;;;6.48;68.05
45323;BME280;31382;50.200;8.674;2022-12-08T17:14:54;99492.22;;;6.34;68.75
45323;BME280;31382;50.200;8.674;2022-12-08T17:19:55;99493.56;;;6.22;68.98
45323;BME280;31382;50.200;8.674;2022-12-08T17:24:57;99488.06;;;6.23;69.16
45323;BME280;31382;50.200;8.674;2022-12-08T17:29:59;99486.22;;;6.32;68.60
45323;BME280;31382;50.200;8.674;2022-12-08T17:35:00;99483.22;;;6.27;69.12
45323;BME280;31382;50.200;8.674;2022-12-08T17:40:02;99482.41;;;6.26;69.26
45323;BME280;31382;50.200;8.674;2022-12-08T17:45:05;99478.88;;;6.26;68.64
45323;BME280;31382;50.200;8.674;2022-12-08T17:50:08;99477.22;;;6.25;68.88
45323;BME280;31382;50.200;8.674;2022-12-08T17:55:09;99476.22;;;6.18;69.83
45323;BME280;31382;50.200;8.674;2022-12-08T18:00:11;99473.56;;;6.18;69.34
45323;BME280;31382;50.200;8.674;2022-12-08T18:05:13;99471.56;;;6.03;70.10
45323;BME280;31382;50.200;8.674;2022-12-08T18:10:16;99467.06;;;5.95;69.88
45323;BME280;31382;50.200;8.674;2022-12-08T18:15:18;99478.25;;;5.99;69.19
45323;BME280;31382;50.200;8.674;2022-12-08T18:20:20;99475.72;;;5.89;69.08
45323;BME280;31382;50.200;8.674;2022-12-08T18:25:21;99473.75;;;6.00;68.80
45323;BME280;31382;50.200;8.674;2022-12-08T18:30:23;99466.91;;;6.05;69.13
45323;BME280;31382;50.200;8.674;2022-12-08T18:35:24;99473.56;;;6.18;68.57
45323;BME280;31382;50.200;8.674;2022-12-08T18:40:27;99468.88;;;6.20;68.22
45323;BME280;31382;50.200;8.674;2022-12-08T18:45:29;99479.06;;;6.16;68.84
45323;BME280;31382;50.200;8.674;2022-12-08T18:50:30;99475.91;;;6.12;68.62
45323;BME280;31382;50.200;8.674;2022-12-08T18:55:31;99474.72;;;6.15;68.76
45323;BME280;31382;50.200;8.674;2022-12-08T19:00:33;99481.06;;;6.22;68.61
45323;BME280;31382;50.200;8.674;2022-12-08T19:05:34;99484.72;;;6.21;69.57
45323;BME280;31382;50.200;8.674;2022-12-08T19:10:36;99483.91;;;6.12;69.82
45323;BME280;31382;50.200;8.674;2022-12-08T19:15:38;99478.56;;;6.21;69.01
45323;BME280;31382;50.200;8.674;2022-12-08T19:20:39;99477.56;;;6.13;69.10
45323;BME280;31382;50.200;8.674;2022-12-08T19:25:41;99477.25;;;6.08;69.39
45323;BME280;31382;50.200;8.674;2022-12-08T19:30:42;99486.59;;;6.04;70.17
45323;BME280;31382;50.200;8.674;2022-12-08T19:35:44;99484.75;;;6.13;69.52
45323;BME280;31382;50.200;8.674;2022-12-08T19:40:52;99486.91;;;6.09;69.54
45323;BME280;31382;50.200;8.674;2022-12-08T19:46:12;99491.06;;;6.12;69.30
45323;BME280;31382;50.200;8.674;2022-12-08T19:51:14;99490.75;;;6.15;69.71
45323;BME280;31382;50.200;8.674;2022-12-08T19:56:15;99490.72;;;6.23;69.56
45323;BME280;31382;50.200;8.674;2022-12-08T20:01:17;99477.91;;;6.19;69.11
45323;BME280;31382;50.200;8.674;2022-12-08T20:06:18;99480.22;;;6.22;69.70
45323;BME280;31382;50.200;8.674;2022-12-08T20:11:20;99481.22;;;6.21;69.41
45323;BME280;31382;50.200;8.674;2022-12-08T20:16:21;99469.41;;;6.15;69.39
45323;BME280;31382;50.200;8.674;2022-12-08T20:21:24;99477.72;;;6.12;69.42
45323;BME280;31382;50.200;8.674;2022-12-08T20:26:25;99473.91;;;6.14;69.10
45323;BME280;31382;50.200;8.674;2022-12-08T20:31:28;99475.25;;;6.10;69.46
45323;BME280;31382;50.200;8.674;2022-12-08T20:36:30;99474.75;;;6.07;69.42
45323;BME280;31382;50.200;8.674;2022-12-08T20:41:31;99469.41;;;6.07;69.77
45323;BME280;31382;50.200;8.674;2022-12-08T20:46:39;99478.09;;;6.01;69.67
45323;BME280;31382;50.200;8.674;2022-12-08T20:51:48;99478.09;;;6.01;69.60
45323;BME280;31382;50.200;8.674;2022-12-08T20:56:50;99476.22;;;6.09;69.72
45323;BME280;31382;50.200;8.674;2022-12-08T21:01:52;99476.38;;;6.16;69.05
45323;BME280;31382;50.200;8.674;2022-12-08T21:06:54;99484.06;;;6.19;69.18
45323;BME280;31382;50.200;8.674;2022-12-08T21:11:55;99483.25;;;6.19;69.36
45323;BME280;31382;50.200;8.674;2022-12-08T21:16:57;99471.38;;;6.21;69.25
45323;BME280;31382;50.200;8.674;2022-12-08T21:21:58;99472.88;;;6.24;69.71
45323;BME280;31382;50.200;8.674;2022-12-08T21:27:00;99478.22;;;6.24;68.72
45323;BME280;31382;50.200;8.674;2022-12-08T21:32:01;99478.03;;;6.25;68.92
45323;BME280;31382;50.200;8.674;2022-12-08T21:37:03;99481.06;;;6.22;68.75
45323;BME280;31382;50.200;8.674;2022-12-08T21:42:04;99482.19;;;6.28;69.15
45323;BME280;31382;50.200;8.674;2022-12-08T21:47:35;99486.22;;;6.24;68.95
45323;BME280;31382;50.200;8.674;2022-12-08T21:52:38;99481.91;;;6.23;69.08
45323;BME280;31382;50.200;8.674;2022-12-08T21:57:40;99480.56;;;6.19;68.82
45323;BME280;31382;50.200;8.674;2022-12-08T22:02:41;99482.06;;;6.13;69.28
45323;BME280;31382;50.200;8.674;2022-12-08T22:07:43;99480.72;;;6.17;68.90
45323;BME280;31382;50.200;8.674;2022-12-08T22:12:45;99487.91;;;6.17;68.70
45323;BME280;31382;50.200;8.674;2022-12-08T22:17:47;99482.22;;;6.11;69.03
45323;BME280;31382;50.200;8.674;2022-12-08T22:22:48;99486.59;;;6.12;69.18
45323;BME280;31382;50.200;8.674;2022-12-08T22:27:50;99485.06;;;6.10;68.72
45323;BME280;31382;50.200;8.674;2022-12-08T22:32:52;99482.56;;;6.17;69.21
45323;BME280;31382;50.200;8.674;2022-12-08T22:37:53;99486.03;;;6.25;68.72
45323;BME280;31382;50.200;8.674;2022-12-08T22:42:55;99484.88;;;6.28;68.09
45323;BME280;31382;50.200;8.674;2022-12-08T22:47:57;99474.19;;;6.28;69.09
45323;BME280;31382;50.200;8.674;2022-12-08T22:52:59;99474.06;;;6.21;68.47
45323;BME280;31382;50.200;8.674;2022-12-08T22:58:00;99472.22;;;6.13;68.44
45323;BME280;31382;50.200;8.674;2022-12-08T23:03:03;99471.53;;;6.20;68.44
45323;BME280;31382;50.200;8.674;2022-12-08T23:08:06;99461.22;;;6.25;68.33
45323;BME280;31382;50.200;8.674;2022-12-08T23:13:08;99460.03;;;6.27;67.95
45323;BME280;31382;50.200;8.674;2022-12-08T23:18:13;99466.72;;;6.23;68.83
45323;BME280;31382;50.200;8.674;2022-12-08T23:23:16;99463.72;;;6.26;67.86
45323;BME280;31382;50.200;8.674;2022-12-08T23:28:17;99462.53;;;6.29;68.12
45323;BME280;31382;50.200;8.674;2022-12-08T23:33:18;99462.03;;;6.25;68.73
45323;BME280;31382;50.200;8.674;2022-12-08T23:38:20;99463.53;;;6.20;68.46
45323;BME280;31382;50.200;8.674;2022-12-08T23:43:21;99464.56;;;6.10;68.67
45323;BME280;31382;50.200;8.674;2022-12-08T23:48:23;99457.56;;;6.09;68.04
45323;BME280;31382;50.200;8.674;2022-12-08T23:53:24;99446.22;;;6.07;68.84
45323;BME280;31382;50.200;8.674;2022-12-08T23:58:29;99443.72;;;6.06;68.35
